< < Back
Terminal Aerodrome Forecast


Current Version              Previous Versions:   1  2  3  4  5  6  7  8  9  

Terminal Aerodrome Forecast

116
FTUS42 KGSP 272326
TAFAND
TAF
KAND 272326Z 2800/2824 VRB03KT P6SM SCT060
     FM280400 06008KT P6SM BKN060
     FM281000 06010KT P6SM BKN017
     FM281700 06009KT P6SM BKN024=

Latest METAR

098
SAUS70 KWBC 280000 RRB
MTRAND
METAR KAND 272356Z AUTO 00000KT 10SM CLR 09/M04 A3035 RMK AO2 SLP278
T00891044 10117 20089 52008


USA.gov is the U.S. government's official web portal to all federal, state and local government web resources and services.